sensor_id;sensor_type;location;lat;lon;timestamp;P1;durP1;ratioP1;P2;durP2;ratioP2
20101;SDS011;10210;52.284;9.892;2022-11-20T00:01:22;30.50;;;16.97;;
20101;SDS011;10210;52.284;9.892;2022-11-20T00:03:53;32.97;;;18.30;;
20101;SDS011;10210;52.284;9.892;2022-11-20T00:06:21;28.33;;;16.20;;
20101;SDS011;10210;52.284;9.892;2022-11-20T00:08:48;28.07;;;15.03;;
20101;SDS011;10210;52.284;9.892;2022-11-20T00:11:17;26.93;;;14.43;;
20101;SDS011;10210;52.284;9.892;2022-11-20T00:13:46;25.37;;;13.70;;
20101;SDS011;10210;52.284;9.892;2022-11-20T00:16:16;24.97;;;14.00;;
20101;SDS011;10210;52.284;9.892;2022-11-20T00:18:44;23.30;;;13.63;;
20101;SDS011;10210;52.284;9.892;2022-11-20T00:21:12;24.90;;;13.47;;
20101;SDS011;10210;52.284;9.892;2022-11-20T00:23:42;24.80;;;13.97;;
20101;SDS011;10210;52.284;9.892;2022-11-20T00:26:09;24.40;;;13.80;;
20101;SDS011;10210;52.284;9.892;2022-11-20T00:28:38;24.97;;;13.33;;
20101;SDS011;10210;52.284;9.892;2022-11-20T00:31:06;24.67;;;13.40;;
20101;SDS011;10210;52.284;9.892;2022-11-20T00:33:38;23.87;;;13.13;;
20101;SDS011;10210;52.284;9.892;2022-11-20T00:36:05;22.50;;;12.67;;
20101;SDS011;10210;52.284;9.892;2022-11-20T00:38:36;22.53;;;12.23;;
20101;SDS011;10210;52.284;9.892;2022-11-20T00:41:03;23.73;;;12.37;;
20101;SDS011;10210;52.284;9.892;2022-11-20T00:43:33;22.77;;;12.27;;
20101;SDS011;10210;52.284;9.892;2022-11-20T00:45:59;22.03;;;12.57;;
20101;SDS011;10210;52.284;9.892;2022-11-20T00:48:27;21.37;;;11.93;;
20101;SDS011;10210;52.284;9.892;2022-11-20T00:50:53;22.40;;;12.43;;
20101;SDS011;10210;52.284;9.892;2022-11-20T00:53:19;21.80;;;11.97;;
20101;SDS011;10210;52.284;9.892;2022-11-20T00:55:55;23.63;;;12.47;;
20101;SDS011;10210;52.284;9.892;2022-11-20T00:58:24;24.00;;;12.37;;
20101;SDS011;10210;52.284;9.892;2022-11-20T01:01:00;23.57;;;11.30;;
20101;SDS011;10210;52.284;9.892;2022-11-20T01:03:36;22.73;;;11.73;;
20101;SDS011;10210;52.284;9.892;2022-11-20T01:06:12;21.27;;;11.57;;
20101;SDS011;10210;52.284;9.892;2022-11-20T01:08:47;22.87;;;11.47;;
20101;SDS011;10210;52.284;9.892;2022-11-20T01:11:18;20.90;;;11.10;;
20101;SDS011;10210;52.284;9.892;2022-11-20T01:13:49;21.17;;;11.40;;
20101;SDS011;10210;52.284;9.892;2022-11-20T01:16:17;23.67;;;12.13;;
20101;SDS011;10210;52.284;9.892;2022-11-20T01:18:46;21.83;;;11.50;;
20101;SDS011;10210;52.284;9.892;2022-11-20T01:21:16;22.03;;;11.70;;
20101;SDS011;10210;52.284;9.892;2022-11-20T01:23:44;25.87;;;12.33;;
20101;SDS011;10210;52.284;9.892;2022-11-20T01:26:13;22.40;;;11.57;;
20101;SDS011;10210;52.284;9.892;2022-11-20T01:28:47;21.83;;;11.13;;
20101;SDS011;10210;52.284;9.892;2022-11-20T01:31:29;22.70;;;12.03;;
20101;SDS011;10210;52.284;9.892;2022-11-20T01:34:02;23.30;;;11.30;;
20101;SDS011;10210;52.284;9.892;2022-11-20T01:36:32;22.53;;;11.63;;
20101;SDS011;10210;52.284;9.892;2022-11-20T01:39:01;20.73;;;10.87;;
20101;SDS011;10210;52.284;9.892;2022-11-20T01:41:31;22.73;;;10.97;;
20101;SDS011;10210;52.284;9.892;2022-11-20T01:44:18;21.60;;;11.47;;
20101;SDS011;10210;52.284;9.892;2022-11-20T01:46:57;21.23;;;11.37;;
20101;SDS011;10210;52.284;9.892;2022-11-20T01:49:33;22.37;;;11.60;;
20101;SDS011;10210;52.284;9.892;2022-11-20T01:52:12;23.20;;;10.90;;
20101;SDS011;10210;52.284;9.892;2022-11-20T01:54:46;21.70;;;11.33;;
20101;SDS011;10210;52.284;9.892;2022-11-20T01:57:20;22.40;;;10.90;;
20101;SDS011;10210;52.284;9.892;2022-11-20T01:59:49;20.63;;;11.03;;
20101;SDS011;10210;52.284;9.892;2022-11-20T02:02:26;20.97;;;11.33;;
20101;SDS011;10210;52.284;9.892;2022-11-20T02:04:53;21.63;;;10.77;;
20101;SDS011;10210;52.284;9.892;2022-11-20T02:07:25;20.97;;;11.37;;
20101;SDS011;10210;52.284;9.892;2022-11-20T02:09:52;22.33;;;11.40;;
20101;SDS011;10210;52.284;9.892;2022-11-20T02:12:18;21.87;;;10.90;;
20101;SDS011;10210;52.284;9.892;2022-11-20T02:15:02;20.77;;;10.97;;
20101;SDS011;10210;52.284;9.892;2022-11-20T02:17:29;21.83;;;11.17;;
20101;SDS011;10210;52.284;9.892;2022-11-20T02:19:55;22.80;;;10.97;;
20101;SDS011;10210;52.284;9.892;2022-11-20T02:22:26;20.40;;;11.03;;
20101;SDS011;10210;52.284;9.892;2022-11-20T02:25:00;21.17;;;11.00;;
20101;SDS011;10210;52.284;9.892;2022-11-20T02:27:30;22.10;;;11.23;;
20101;SDS011;10210;52.284;9.892;2022-11-20T02:30:00;21.83;;;11.53;;
20101;SDS011;10210;52.284;9.892;2022-11-20T02:32:32;21.17;;;10.93;;
20101;SDS011;10210;52.284;9.892;2022-11-20T02:35:07;21.63;;;10.50;;
20101;SDS011;10210;52.284;9.892;2022-11-20T02:37:42;20.50;;;10.57;;
20101;SDS011;10210;52.284;9.892;2022-11-20T02:40:09;19.90;;;10.50;;
20101;SDS011;10210;52.284;9.892;2022-11-20T02:42:36;22.67;;;10.77;;
20101;SDS011;10210;52.284;9.892;2022-11-20T02:45:03;20.57;;;10.17;;
20101;SDS011;10210;52.284;9.892;2022-11-20T02:47:30;19.73;;;10.50;;
20101;SDS011;10210;52.284;9.892;2022-11-20T02:49:57;21.50;;;10.70;;
20101;SDS011;10210;52.284;9.892;2022-11-20T02:52:23;22.70;;;10.90;;
20101;SDS011;10210;52.284;9.892;2022-11-20T02:54:49;20.40;;;11.10;;
20101;SDS011;10210;52.284;9.892;2022-11-20T02:57:15;20.67;;;10.17;;
20101;SDS011;10210;52.284;9.892;2022-11-20T02:59:41;21.43;;;11.03;;
20101;SDS011;10210;52.284;9.892;2022-11-20T03:02:06;19.93;;;10.23;;
20101;SDS011;10210;52.284;9.892;2022-11-20T03:04:32;20.80;;;10.70;;
20101;SDS011;10210;52.284;9.892;2022-11-20T03:06:58;19.67;;;10.13;;
20101;SDS011;10210;52.284;9.892;2022-11-20T03:09:24;20.73;;;10.53;;
20101;SDS011;10210;52.284;9.892;2022-11-20T03:11:50;21.03;;;11.30;;
20101;SDS011;10210;52.284;9.892;2022-11-20T03:14:16;21.53;;;11.10;;
20101;SDS011;10210;52.284;9.892;2022-11-20T03:16:41;21.17;;;11.70;;
20101;SDS011;10210;52.284;9.892;2022-11-20T03:19:07;21.97;;;11.17;;
20101;SDS011;10210;52.284;9.892;2022-11-20T03:21:33;21.33;;;10.60;;
20101;SDS011;10210;52.284;9.892;2022-11-20T03:23:59;22.33;;;11.27;;
20101;SDS011;10210;52.284;9.892;2022-11-20T03:26:27;21.67;;;10.83;;
20101;SDS011;10210;52.284;9.892;2022-11-20T03:28:54;22.10;;;11.83;;
20101;SDS011;10210;52.284;9.892;2022-11-20T03:31:30;21.57;;;11.13;;
20101;SDS011;10210;52.284;9.892;2022-11-20T03:33:59;22.87;;;11.30;;
20101;SDS011;10210;52.284;9.892;2022-11-20T03:36:26;22.00;;;11.17;;
20101;SDS011;10210;52.284;9.892;2022-11-20T03:38:53;18.30;;;10.13;;
20101;SDS011;10210;52.284;9.892;2022-11-20T03:41:21;20.83;;;10.37;;
20101;SDS011;10210;52.284;9.892;2022-11-20T03:43:52;21.93;;;11.07;;
20101;SDS011;10210;52.284;9.892;2022-11-20T03:46:21;20.97;;;11.10;;
20101;SDS011;10210;52.284;9.892;2022-11-20T03:48:48;21.40;;;11.23;;
20101;SDS011;10210;52.284;9.892;2022-11-20T03:53:43;22.27;;;11.10;;
20101;SDS011;10210;52.284;9.892;2022-11-20T03:56:11;21.90;;;11.53;;
20101;SDS011;10210;52.284;9.892;2022-11-20T03:58:39;22.50;;;10.63;;
20101;SDS011;10210;52.284;9.892;2022-11-20T04:03:41;21.73;;;11.20;;
20101;SDS011;10210;52.284;9.892;2022-11-20T04:06:12;22.17;;;11.83;;
20101;SDS011;10210;52.284;9.892;2022-11-20T04:08:44;19.97;;;10.37;;
20101;SDS011;10210;52.284;9.892;2022-11-20T04:13:40;20.43;;;11.00;;
20101;SDS011;10210;52.284;9.892;2022-11-20T04:16:08;20.73;;;10.80;;
20101;SDS011;10210;52.284;9.892;2022-11-20T04:18:35;22.23;;;11.27;;
20101;SDS011;10210;52.284;9.892;2022-11-20T04:21:01;21.10;;;10.67;;
20101;SDS011;10210;52.284;9.892;2022-11-20T04:23:27;20.83;;;10.80;;
20101;SDS011;10210;52.284;9.892;2022-11-20T04:25:53;20.27;;;10.87;;
20101;SDS011;10210;52.284;9.892;2022-11-20T04:28:19;21.43;;;11.67;;
20101;SDS011;10210;52.284;9.892;2022-11-20T04:30:45;20.67;;;10.43;;
20101;SDS011;10210;52.284;9.892;2022-11-20T04:33:11;20.37;;;10.40;;
20101;SDS011;10210;52.284;9.892;2022-11-20T04:35:37;19.87;;;10.23;;
20101;SDS011;10210;52.284;9.892;2022-11-20T04:38:03;20.60;;;11.37;;
20101;SDS011;10210;52.284;9.892;2022-11-20T04:40:29;20.47;;;10.50;;
20101;SDS011;10210;52.284;9.892;2022-11-20T04:42:55;21.77;;;11.90;;
20101;SDS011;10210;52.284;9.892;2022-11-20T04:45:22;21.37;;;11.03;;
20101;SDS011;10210;52.284;9.892;2022-11-20T04:47:48;21.03;;;10.97;;
20101;SDS011;10210;52.284;9.892;2022-11-20T04:50:14;22.33;;;12.00;;
20101;SDS011;10210;52.284;9.892;2022-11-20T04:52:40;21.30;;;10.77;;
20101;SDS011;10210;52.284;9.892;2022-11-20T04:55:06;33.03;;;22.37;;
20101;SDS011;10210;52.284;9.892;2022-11-20T04:57:32;22.07;;;12.27;;
20101;SDS011;10210;52.284;9.892;2022-11-20T04:59:58;21.90;;;11.50;;
20101;SDS011;10210;52.284;9.892;2022-11-20T05:02:24;21.87;;;11.17;;
20101;SDS011;10210;52.284;9.892;2022-11-20T05:04:49;20.30;;;10.27;;
20101;SDS011;10210;52.284;9.892;2022-11-20T05:07:15;21.03;;;10.30;;
20101;SDS011;10210;52.284;9.892;2022-11-20T05:09:41;21.73;;;11.43;;
20101;SDS011;10210;52.284;9.892;2022-11-20T05:12:07;21.43;;;11.13;;
20101;SDS011;10210;52.284;9.892;2022-11-20T05:14:34;22.60;;;11.30;;
20101;SDS011;10210;52.284;9.892;2022-11-20T05:17:01;20.97;;;10.83;;
20101;SDS011;10210;52.284;9.892;2022-11-20T05:19:27;23.10;;;11.07;;
20101;SDS011;10210;52.284;9.892;2022-11-20T05:21:52;21.30;;;11.27;;
20101;SDS011;10210;52.284;9.892;2022-11-20T05:24:18;19.63;;;10.40;;
20101;SDS011;10210;52.284;9.892;2022-11-20T05:26:44;19.43;;;10.43;;
20101;SDS011;10210;52.284;9.892;2022-11-20T05:29:10;20.83;;;10.87;;
20101;SDS011;10210;52.284;9.892;2022-11-20T05:31:38;20.53;;;10.13;;
20101;SDS011;10210;52.284;9.892;2022-11-20T05:34:05;20.60;;;10.67;;
20101;SDS011;10210;52.284;9.892;2022-11-20T05:36:31;20.80;;;10.83;;
20101;SDS011;10210;52.284;9.892;2022-11-20T05:38:57;21.17;;;11.00;;
20101;SDS011;10210;52.284;9.892;2022-11-20T05:41:23;21.13;;;11.33;;
20101;SDS011;10210;52.284;9.892;2022-11-20T05:43:48;20.57;;;11.10;;
20101;SDS011;10210;52.284;9.892;2022-11-20T05:46:16;20.17;;;10.40;;
20101;SDS011;10210;52.284;9.892;2022-11-20T05:48:45;23.93;;;12.97;;
20101;SDS011;10210;52.284;9.892;2022-11-20T05:51:13;22.90;;;12.40;;
20101;SDS011;10210;52.284;9.892;2022-11-20T05:53:42;22.63;;;11.87;;
20101;SDS011;10210;52.284;9.892;2022-11-20T05:56:11;20.80;;;11.67;;
20101;SDS011;10210;52.284;9.892;2022-11-20T05:58:40;22.37;;;11.50;;
20101;SDS011;10210;52.284;9.892;2022-11-20T06:01:17;21.77;;;11.60;;
20101;SDS011;10210;52.284;9.892;2022-11-20T06:03:49;22.20;;;11.53;;
20101;SDS011;10210;52.284;9.892;2022-11-20T06:06:16;21.80;;;11.93;;
20101;SDS011;10210;52.284;9.892;2022-11-20T06:08:43;21.57;;;11.60;;
20101;SDS011;10210;52.284;9.892;2022-11-20T06:11:11;20.10;;;11.57;;
20101;SDS011;10210;52.284;9.892;2022-11-20T06:13:39;20.80;;;11.20;;
20101;SDS011;10210;52.284;9.892;2022-11-20T06:16:05;20.73;;;11.20;;
20101;SDS011;10210;52.284;9.892;2022-11-20T06:18:31;22.60;;;11.97;;
20101;SDS011;10210;52.284;9.892;2022-11-20T06:21:04;20.23;;;11.30;;
20101;SDS011;10210;52.284;9.892;2022-11-20T06:23:33;20.80;;;11.13;;
20101;SDS011;10210;52.284;9.892;2022-11-20T06:26:05;21.83;;;11.87;;
20101;SDS011;10210;52.284;9.892;2022-11-20T06:28:34;21.40;;;12.33;;
20101;SDS011;10210;52.284;9.892;2022-11-20T06:31:00;20.93;;;11.17;;
20101;SDS011;10210;52.284;9.892;2022-11-20T06:33:27;23.20;;;12.43;;
20101;SDS011;10210;52.284;9.892;2022-11-20T06:35:56;21.77;;;11.50;;
20101;SDS011;10210;52.284;9.892;2022-11-20T06:38:23;21.93;;;11.77;;
20101;SDS011;10210;52.284;9.892;2022-11-20T06:40:50;21.33;;;11.90;;
20101;SDS011;10210;52.284;9.892;2022-11-20T06:43:16;21.37;;;11.77;;
20101;SDS011;10210;52.284;9.892;2022-11-20T06:45:41;21.23;;;11.77;;
20101;SDS011;10210;52.284;9.892;2022-11-20T06:48:07;22.13;;;12.07;;
20101;SDS011;10210;52.284;9.892;2022-11-20T06:50:34;22.27;;;12.67;;
20101;SDS011;10210;52.284;9.892;2022-11-20T06:53:02;24.03;;;12.57;;
20101;SDS011;10210;52.284;9.892;2022-11-20T06:55:30;22.83;;;12.83;;
20101;SDS011;10210;52.284;9.892;2022-11-20T06:57:56;21.27;;;11.97;;
20101;SDS011;10210;52.284;9.892;2022-11-20T07:00:23;25.07;;;13.70;;
20101;SDS011;10210;52.284;9.892;2022-11-20T07:02:48;22.23;;;11.40;;
20101;SDS011;10210;52.284;9.892;2022-11-20T07:05:14;21.43;;;11.77;;
20101;SDS011;10210;52.284;9.892;2022-11-20T07:07:41;20.57;;;11.60;;
20101;SDS011;10210;52.284;9.892;2022-11-20T07:10:07;23.37;;;11.93;;
20101;SDS011;10210;52.284;9.892;2022-11-20T07:12:33;21.93;;;11.67;;
20101;SDS011;10210;52.284;9.892;2022-11-20T07:14:59;20.37;;;10.90;;
20101;SDS011;10210;52.284;9.892;2022-11-20T07:17:24;26.00;;;13.37;;
20101;SDS011;10210;52.284;9.892;2022-11-20T07:19:50;21.33;;;10.97;;
20101;SDS011;10210;52.284;9.892;2022-11-20T07:22:16;20.53;;;11.27;;
20101;SDS011;10210;52.284;9.892;2022-11-20T07:24:41;22.77;;;11.73;;
20101;SDS011;10210;52.284;9.892;2022-11-20T07:27:07;21.97;;;11.47;;
20101;SDS011;10210;52.284;9.892;2022-11-20T07:29:33;21.03;;;10.83;;
20101;SDS011;10210;52.284;9.892;2022-11-20T07:31:58;23.27;;;12.77;;
20101;SDS011;10210;52.284;9.892;2022-11-20T07:34:24;23.90;;;12.77;;
20101;SDS011;10210;52.284;9.892;2022-11-20T07:36:50;22.93;;;13.20;;
20101;SDS011;10210;52.284;9.892;2022-11-20T07:39:15;23.53;;;13.20;;
20101;SDS011;10210;52.284;9.892;2022-11-20T07:41:41;21.33;;;11.23;;
20101;SDS011;10210;52.284;9.892;2022-11-20T07:44:06;22.70;;;11.13;;
20101;SDS011;10210;52.284;9.892;2022-11-20T07:46:32;21.73;;;12.07;;
20101;SDS011;10210;52.284;9.892;2022-11-20T07:48:58;22.53;;;11.70;;
20101;SDS011;10210;52.284;9.892;2022-11-20T07:51:23;22.00;;;11.50;;
20101;SDS011;10210;52.284;9.892;2022-11-20T07:53:51;21.90;;;12.37;;
20101;SDS011;10210;52.284;9.892;2022-11-20T07:56:17;20.40;;;11.03;;
20101;SDS011;10210;52.284;9.892;2022-11-20T07:58:43;21.37;;;11.20;;
20101;SDS011;10210;52.284;9.892;2022-11-20T08:01:08;24.30;;;12.13;;
20101;SDS011;10210;52.284;9.892;2022-11-20T08:03:34;22.23;;;11.83;;
20101;SDS011;10210;52.284;9.892;2022-11-20T08:06:02;22.83;;;12.07;;
20101;SDS011;10210;52.284;9.892;2022-11-20T08:08:29;21.37;;;11.50;;
20101;SDS011;10210;52.284;9.892;2022-11-20T08:10:58;22.97;;;11.17;;
20101;SDS011;10210;52.284;9.892;2022-11-20T08:13:42;20.63;;;11.00;;
20101;SDS011;10210;52.284;9.892;2022-11-20T08:16:27;21.80;;;11.30;;
20101;SDS011;10210;52.284;9.892;2022-11-20T08:18:53;22.20;;;11.23;;
20101;SDS011;10210;52.284;9.892;2022-11-20T08:21:19;26.00;;;13.97;;
20101;SDS011;10210;52.284;9.892;2022-11-20T08:23:45;21.87;;;11.30;;
20101;SDS011;10210;52.284;9.892;2022-11-20T08:26:10;29.40;;;16.03;;
20101;SDS011;10210;52.284;9.892;2022-11-20T08:28:36;24.17;;;12.83;;
20101;SDS011;10210;52.284;9.892;2022-11-20T08:31:02;23.07;;;11.67;;
20101;SDS011;10210;52.284;9.892;2022-11-20T08:33:29;23.47;;;12.20;;
20101;SDS011;10210;52.284;9.892;2022-11-20T08:36:00;23.93;;;13.40;;
20101;SDS011;10210;52.284;9.892;2022-11-20T08:38:30;20.47;;;10.87;;
20101;SDS011;10210;52.284;9.892;2022-11-20T08:41:00;20.90;;;11.43;;
20101;SDS011;10210;52.284;9.892;2022-11-20T08:43:47;21.53;;;11.60;;
20101;SDS011;10210;52.284;9.892;2022-11-20T08:46:12;23.17;;;11.50;;
20101;SDS011;10210;52.284;9.892;2022-11-20T08:48:38;21.37;;;11.27;;
20101;SDS011;10210;52.284;9.892;2022-11-20T08:51:04;21.90;;;11.17;;
20101;SDS011;10210;52.284;9.892;2022-11-20T08:53:30;22.90;;;11.43;;
20101;SDS011;10210;52.284;9.892;2022-11-20T08:55:56;21.97;;;11.20;;
20101;SDS011;10210;52.284;9.892;2022-11-20T08:58:23;22.47;;;11.60;;
20101;SDS011;10210;52.284;9.892;2022-11-20T09:00:49;21.97;;;11.17;;
20101;SDS011;10210;52.284;9.892;2022-11-20T09:03:15;21.67;;;11.33;;
20101;SDS011;10210;52.284;9.892;2022-11-20T09:05:40;22.47;;;11.33;;
20101;SDS011;10210;52.284;9.892;2022-11-20T09:08:06;23.33;;;11.97;;
20101;SDS011;10210;52.284;9.892;2022-11-20T09:10:32;21.87;;;11.33;;
20101;SDS011;10210;52.284;9.892;2022-11-20T09:12:57;22.37;;;11.67;;
20101;SDS011;10210;52.284;9.892;2022-11-20T09:15:24;21.43;;;10.77;;
20101;SDS011;10210;52.284;9.892;2022-11-20T09:17:54;22.60;;;10.93;;
20101;SDS011;10210;52.284;9.892;2022-11-20T09:20:23;21.67;;;11.23;;
20101;SDS011;10210;52.284;9.892;2022-11-20T09:22:49;23.87;;;12.30;;
20101;SDS011;10210;52.284;9.892;2022-11-20T09:25:15;20.47;;;10.77;;
20101;SDS011;10210;52.284;9.892;2022-11-20T09:27:41;21.97;;;12.17;;
20101;SDS011;10210;52.284;9.892;2022-11-20T09:30:09;21.27;;;11.60;;
20101;SDS011;10210;52.284;9.892;2022-11-20T09:32:38;21.43;;;11.40;;
20101;SDS011;10210;52.284;9.892;2022-11-20T09:35:04;25.80;;;13.07;;
20101;SDS011;10210;52.284;9.892;2022-11-20T09:37:31;23.33;;;12.23;;
20101;SDS011;10210;52.284;9.892;2022-11-20T09:39:56;22.63;;;11.90;;
20101;SDS011;10210;52.284;9.892;2022-11-20T09:42:25;23.00;;;12.13;;
20101;SDS011;10210;52.284;9.892;2022-11-20T09:45:27;22.67;;;12.03;;
20101;SDS011;10210;52.284;9.892;2022-11-20T09:51:21;25.27;;;14.20;;
20101;SDS011;10210;52.284;9.892;2022-11-20T09:56:45;22.97;;;12.27;;
20101;SDS011;10210;52.284;9.892;2022-11-20T10:05:02;26.87;;;15.03;;
20101;SDS011;10210;52.284;9.892;2022-11-20T10:10:43;23.57;;;12.97;;
20101;SDS011;10210;52.284;9.892;2022-11-20T10:13:25;24.10;;;12.90;;
20101;SDS011;10210;52.284;9.892;2022-11-20T10:19:26;25.33;;;14.10;;
20101;SDS011;10210;52.284;9.892;2022-11-20T10:25:24;24.63;;;13.10;;
20101;SDS011;10210;52.284;9.892;2022-11-20T10:28:09;23.60;;;12.30;;
20101;SDS011;10210;52.284;9.892;2022-11-20T10:31:00;22.40;;;12.60;;
20101;SDS011;10210;52.284;9.892;2022-11-20T10:33:34;22.40;;;11.50;;
20101;SDS011;10210;52.284;9.892;2022-11-20T10:36:14;23.33;;;12.67;;
20101;SDS011;10210;52.284;9.892;2022-11-20T10:38:47;21.60;;;12.27;;
20101;SDS011;10210;52.284;9.892;2022-11-20T10:41:27;23.70;;;12.70;;
20101;SDS011;10210;52.284;9.892;2022-11-20T10:44:16;22.17;;;12.30;;
20101;SDS011;10210;52.284;9.892;2022-11-20T10:47:04;24.17;;;12.77;;
20101;SDS011;10210;52.284;9.892;2022-11-20T10:49:36;24.27;;;12.67;;
20101;SDS011;10210;52.284;9.892;2022-11-20T10:52:06;24.27;;;13.23;;
20101;SDS011;10210;52.284;9.892;2022-11-20T10:54:51;23.13;;;12.37;;
20101;SDS011;10210;52.284;9.892;2022-11-20T11:00:41;25.57;;;12.70;;
20101;SDS011;10210;52.284;9.892;2022-11-20T11:03:26;22.73;;;12.40;;
20101;SDS011;10210;52.284;9.892;2022-11-20T11:06:08;25.03;;;12.77;;
20101;SDS011;10210;52.284;9.892;2022-11-20T11:09:02;23.67;;;12.17;;
20101;SDS011;10210;52.284;9.892;2022-11-20T11:11:37;23.53;;;12.50;;
20101;SDS011;10210;52.284;9.892;2022-11-20T11:16:51;23.77;;;12.93;;
20101;SDS011;10210;52.284;9.892;2022-11-20T11:19:19;24.60;;;13.30;;
20101;SDS011;10210;52.284;9.892;2022-11-20T11:21:55;22.17;;;12.67;;
20101;SDS011;10210;52.284;9.892;2022-11-20T11:24:29;23.90;;;13.20;;
20101;SDS011;10210;52.284;9.892;2022-11-20T11:26:59;24.10;;;12.40;;
20101;SDS011;10210;52.284;9.892;2022-11-20T11:29:36;20.83;;;11.33;;
20101;SDS011;10210;52.284;9.892;2022-11-20T11:32:12;22.13;;;11.90;;
20101;SDS011;10210;52.284;9.892;2022-11-20T11:34:42;23.33;;;12.50;;
20101;SDS011;10210;52.284;9.892;2022-11-20T11:37:17;21.13;;;11.83;;
20101;SDS011;10210;52.284;9.892;2022-11-20T11:39:46;23.33;;;12.27;;
20101;SDS011;10210;52.284;9.892;2022-11-20T11:42:15;22.17;;;12.60;;
20101;SDS011;10210;52.284;9.892;2022-11-20T11:44:44;30.57;;;17.27;;
20101;SDS011;10210;52.284;9.892;2022-11-20T11:47:44;24.63;;;13.80;;
20101;SDS011;10210;52.284;9.892;2022-11-20T11:50:14;21.97;;;11.50;;
20101;SDS011;10210;52.284;9.892;2022-11-20T11:55:56;20.70;;;11.73;;
20101;SDS011;10210;52.284;9.892;2022-11-20T11:58:44;21.70;;;10.87;;
20101;SDS011;10210;52.284;9.892;2022-11-20T12:01:20;21.87;;;11.57;;
20101;SDS011;10210;52.284;9.892;2022-11-20T12:03:59;21.23;;;10.53;;
20101;SDS011;10210;52.284;9.892;2022-11-20T12:06:43;21.33;;;10.53;;
20101;SDS011;10210;52.284;9.892;2022-11-20T12:09:16;22.50;;;11.93;;
20101;SDS011;10210;52.284;9.892;2022-11-20T12:11:54;21.80;;;11.67;;
20101;SDS011;10210;52.284;9.892;2022-11-20T12:14:40;23.30;;;11.87;;
20101;SDS011;10210;52.284;9.892;2022-11-20T12:17:11;25.47;;;12.90;;
20101;SDS011;10210;52.284;9.892;2022-11-20T12:19:39;23.70;;;12.97;;
20101;SDS011;10210;52.284;9.892;2022-11-20T12:25:18;24.10;;;11.87;;
20101;SDS011;10210;52.284;9.892;2022-11-20T12:30:54;24.43;;;13.07;;
20101;SDS011;10210;52.284;9.892;2022-11-20T12:33:28;24.30;;;11.83;;
20101;SDS011;10210;52.284;9.892;2022-11-20T13:00:15;23.03;;;11.97;;
20101;SDS011;10210;52.284;9.892;2022-11-20T13:05:37;23.40;;;12.57;;
20101;SDS011;10210;52.284;9.892;2022-11-20T13:08:19;26.13;;;13.60;;
20101;SDS011;10210;52.284;9.892;2022-11-20T13:11:06;23.87;;;13.23;;
20101;SDS011;10210;52.284;9.892;2022-11-20T13:16:27;24.27;;;12.70;;
20101;SDS011;10210;52.284;9.892;2022-11-20T13:19:02;22.47;;;12.33;;
20101;SDS011;10210;52.284;9.892;2022-11-20T13:21:37;22.27;;;11.43;;
20101;SDS011;10210;52.284;9.892;2022-11-20T13:29:57;22.23;;;11.17;;
20101;SDS011;10210;52.284;9.892;2022-11-20T13:32:47;23.60;;;12.97;;
20101;SDS011;10210;52.284;9.892;2022-11-20T13:35:40;23.00;;;12.60;;
20101;SDS011;10210;52.284;9.892;2022-11-20T13:38:14;22.23;;;11.70;;
20101;SDS011;10210;52.284;9.892;2022-11-20T13:40:56;24.27;;;12.37;;
20101;SDS011;10210;52.284;9.892;2022-11-20T13:43:44;21.97;;;11.73;;
20101;SDS011;10210;52.284;9.892;2022-11-20T13:46:12;23.57;;;12.20;;
20101;SDS011;10210;52.284;9.892;2022-11-20T13:48:40;23.10;;;11.43;;
20101;SDS011;10210;52.284;9.892;2022-11-20T13:51:15;21.77;;;11.63;;
20101;SDS011;10210;52.284;9.892;2022-11-20T14:02:25;26.13;;;16.97;;
20101;SDS011;10210;52.284;9.892;2022-11-20T14:04:56;30.47;;;16.73;;
20101;SDS011;10210;52.284;9.892;2022-11-20T14:07:27;21.27;;;11.77;;
20101;SDS011;10210;52.284;9.892;2022-11-20T14:10:04;22.30;;;12.37;;
20101;SDS011;10210;52.284;9.892;2022-11-20T14:12:43;21.97;;;11.77;;
20101;SDS011;10210;52.284;9.892;2022-11-20T14:15:22;24.17;;;12.70;;
20101;SDS011;10210;52.284;9.892;2022-11-20T14:17:55;22.93;;;12.27;;
20101;SDS011;10210;52.284;9.892;2022-11-20T14:20:23;22.30;;;12.03;;
20101;SDS011;10210;52.284;9.892;2022-11-20T14:22:56;22.70;;;12.13;;
20101;SDS011;10210;52.284;9.892;2022-11-20T14:25:23;21.53;;;11.47;;
20101;SDS011;10210;52.284;9.892;2022-11-20T14:27:56;21.97;;;12.13;;
20101;SDS011;10210;52.284;9.892;2022-11-20T14:30:26;23.30;;;12.73;;
20101;SDS011;10210;52.284;9.892;2022-11-20T14:33:09;22.97;;;13.37;;
20101;SDS011;10210;52.284;9.892;2022-11-20T14:35:48;23.63;;;13.23;;
20101;SDS011;10210;52.284;9.892;2022-11-20T14:38:18;24.83;;;13.23;;
20101;SDS011;10210;52.284;9.892;2022-11-20T14:40:50;25.30;;;14.13;;
20101;SDS011;10210;52.284;9.892;2022-11-20T14:43:17;28.90;;;15.47;;
20101;SDS011;10210;52.284;9.892;2022-11-20T14:45:54;29.77;;;16.07;;
20101;SDS011;10210;52.284;9.892;2022-11-20T14:48:33;26.07;;;14.40;;
20101;SDS011;10210;52.284;9.892;2022-11-20T14:51:05;22.47;;;12.70;;
20101;SDS011;10210;52.284;9.892;2022-11-20T14:53:35;23.67;;;12.97;;
20101;SDS011;10210;52.284;9.892;2022-11-20T14:56:01;24.63;;;13.23;;
20101;SDS011;10210;52.284;9.892;2022-11-20T14:58:29;25.20;;;14.07;;
20101;SDS011;10210;52.284;9.892;2022-11-20T15:01:02;26.87;;;14.70;;
20101;SDS011;10210;52.284;9.892;2022-11-20T15:03:38;25.87;;;13.90;;
20101;SDS011;10210;52.284;9.892;2022-11-20T15:06:06;25.20;;;13.90;;
20101;SDS011;10210;52.284;9.892;2022-11-20T15:08:36;26.63;;;15.07;;
20101;SDS011;10210;52.284;9.892;2022-11-20T15:11:02;27.20;;;17.03;;
20101;SDS011;10210;52.284;9.892;2022-11-20T15:13:40;32.73;;;18.27;;
20101;SDS011;10210;52.284;9.892;2022-11-20T15:16:13;30.37;;;18.17;;
20101;SDS011;10210;52.284;9.892;2022-11-20T15:18:46;37.60;;;23.63;;
20101;SDS011;10210;52.284;9.892;2022-11-20T15:21:15;38.97;;;23.40;;
20101;SDS011;10210;52.284;9.892;2022-11-20T15:23:44;33.63;;;19.97;;
20101;SDS011;10210;52.284;9.892;2022-11-20T15:26:10;27.73;;;16.97;;
20101;SDS011;10210;52.284;9.892;2022-11-20T15:28:43;27.33;;;15.70;;
20101;SDS011;10210;52.284;9.892;2022-11-20T15:31:13;25.63;;;14.73;;
20101;SDS011;10210;52.284;9.892;2022-11-20T15:33:42;24.63;;;12.87;;
20101;SDS011;10210;52.284;9.892;2022-11-20T15:36:08;24.37;;;13.70;;
20101;SDS011;10210;52.284;9.892;2022-11-20T15:38:34;24.80;;;12.93;;
20101;SDS011;10210;52.284;9.892;2022-11-20T15:41:00;24.80;;;15.17;;
20101;SDS011;10210;52.284;9.892;2022-11-20T15:43:26;23.33;;;12.67;;
20101;SDS011;10210;52.284;9.892;2022-11-20T15:45:53;23.70;;;12.90;;
20101;SDS011;10210;52.284;9.892;2022-11-20T15:48:29;24.10;;;14.57;;
20101;SDS011;10210;52.284;9.892;2022-11-20T15:53:37;38.00;;;25.47;;
20101;SDS011;10210;52.284;9.892;2022-11-20T15:56:05;31.87;;;20.07;;
20101;SDS011;10210;52.284;9.892;2022-11-20T15:58:36;32.77;;;18.87;;
20101;SDS011;10210;52.284;9.892;2022-11-20T16:01:03;30.57;;;18.43;;
20101;SDS011;10210;52.284;9.892;2022-11-20T16:03:29;31.80;;;19.57;;
20101;SDS011;10210;52.284;9.892;2022-11-20T16:05:55;32.63;;;18.97;;
20101;SDS011;10210;52.284;9.892;2022-11-20T16:08:21;33.67;;;18.97;;
20101;SDS011;10210;52.284;9.892;2022-11-20T16:10:46;34.07;;;20.77;;